Loading...
Nice Côte d'Azur Airport

LFMN

Code AITA: NCE

Nice, Provence-Alpes-Côte d'Azur, France

13.0°

Rosée: 4.0

Vitesse du vent

5 kt

Direction: 90° /

Altimètre

30.15 Hg

QNH : 1021

LFMN 201130Z 09005KT CAVOK 13/04 Q1021 NOSIG


Nice Côte d'Azur Airport

Élévation

4.0 mètres

Ville

Nice

Localisation

Provence-Alpes-Côte d'Azur

Pays

France

Nouvelle recherche